createdAt,value
2023-03-05T00:01:57.095Z,10.10
2023-03-05T00:04:24.669Z,10.10
2023-03-05T00:06:52.112Z,10.20
2023-03-05T00:09:19.378Z,10.20
2023-03-05T00:11:46.867Z,10.30
2023-03-05T00:14:14.131Z,10.40
2023-03-05T00:16:41.756Z,10.40
2023-03-05T00:19:10.357Z,10.50
2023-03-05T00:21:40.727Z,10.60
2023-03-05T00:24:14.248Z,10.70
2023-03-05T00:26:42.961Z,10.90
2023-03-05T00:29:13.080Z,11.00
2023-03-05T00:31:40.663Z,11.10
2023-03-05T00:34:11.723Z,11.10
2023-03-05T00:36:50.608Z,11.20
2023-03-05T00:39:19.630Z,11.20
2023-03-05T00:41:47.018Z,11.20
2023-03-05T00:44:14.402Z,11.10
2023-03-05T00:46:41.808Z,11.10
2023-03-05T00:49:09.130Z,11.10
2023-03-05T00:51:36.561Z,11.10
2023-03-05T00:54:04.713Z,11.10
2023-03-05T00:56:32.273Z,11.10
2023-03-05T00:58:59.615Z,11.10
2023-03-05T01:01:27.064Z,11.20
2023-03-05T01:03:59.715Z,11.20
2023-03-05T01:06:27.268Z,11.10
2023-03-05T01:08:54.859Z,11.20
2023-03-05T01:11:22.156Z,11.20
2023-03-05T01:13:49.476Z,11.20
2023-03-05T01:16:16.832Z,11.20
2023-03-05T01:18:44.251Z,11.10
2023-03-05T01:21:11.687Z,11.10
2023-03-05T01:23:39.004Z,11.10
2023-03-05T01:26:06.786Z,11.10
2023-03-05T01:28:34.228Z,11.00
2023-03-05T01:31:01.861Z,11.00
2023-03-05T01:33:29.422Z,11.00
2023-03-05T01:35:56.708Z,10.90
2023-03-05T01:38:24.034Z,10.90
2023-03-05T01:40:51.773Z,10.80
2023-03-05T01:43:28.820Z,10.70
2023-03-05T01:46:18.067Z,10.70
2023-03-05T01:48:50.497Z,10.50
2023-03-05T01:51:18.896Z,10.10
2023-03-05T01:53:47.275Z,9.90
2023-03-05T01:56:15.088Z,9.80
2023-03-05T01:58:42.789Z,9.80
2023-03-05T02:01:10.258Z,9.80
2023-03-05T02:03:38.212Z,9.80
2023-03-05T02:06:05.865Z,9.70
2023-03-05T02:08:33.137Z,9.70
2023-03-05T02:11:02.320Z,9.70
2023-03-05T02:13:38.844Z,9.70
2023-03-05T02:16:06.999Z,9.70
2023-03-05T02:18:34.613Z,9.70
2023-03-05T02:21:06.886Z,9.70
2023-03-05T02:23:39.157Z,9.70
2023-03-05T02:26:08.058Z,9.70
2023-03-05T02:28:41.043Z,9.80
2023-03-05T02:31:18.110Z,10.00
2023-03-05T02:33:45.952Z,10.20
2023-03-05T02:36:14.552Z,10.30
2023-03-05T02:38:43.270Z,10.40
2023-03-05T02:41:10.905Z,10.50
2023-03-05T02:43:38.536Z,10.50
2023-03-05T02:46:06.587Z,10.50
2023-03-05T02:48:34.448Z,10.50
2023-03-05T02:51:04.316Z,10.40
2023-03-05T02:53:31.613Z,10.40
2023-03-05T02:55:58.943Z,10.40
2023-03-05T02:58:27.462Z,10.30
2023-03-05T03:00:54.819Z,10.30
2023-03-05T03:03:22.419Z,10.20
2023-03-05T03:05:49.790Z,10.20
2023-03-05T03:08:17.199Z,10.10
2023-03-05T03:10:44.627Z,10.10
2023-03-05T03:13:11.880Z,10.00
2023-03-05T03:15:40.606Z,10.00
2023-03-05T03:18:07.989Z,10.00
2023-03-05T03:20:39.280Z,10.00
2023-03-05T03:23:07.089Z,10.10
2023-03-05T03:25:34.916Z,10.10
2023-03-05T03:28:02.159Z,10.10
2023-03-05T03:30:29.535Z,10.20
2023-03-05T03:32:56.769Z,10.20
2023-03-05T03:35:24.092Z,10.10
2023-03-05T03:37:51.483Z,10.10
2023-03-05T03:40:19.175Z,10.00
2023-03-05T03:42:46.441Z,10.00
2023-03-05T03:45:14.169Z,9.90
2023-03-05T03:47:41.445Z,9.80
2023-03-05T03:50:09.618Z,9.80
2023-03-05T03:52:36.936Z,9.70
2023-03-05T03:55:04.407Z,9.80
2023-03-05T03:57:33.718Z,9.80
2023-03-05T04:00:01.288Z,9.70
2023-03-05T04:02:28.578Z,9.70
2023-03-05T04:04:55.884Z,9.60
2023-03-05T04:07:23.250Z,9.50
2023-03-05T04:09:50.658Z,9.40
2023-03-05T04:12:20.575Z,9.30
2023-03-05T04:14:49.322Z,9.20
2023-03-05T04:17:16.764Z,9.10
2023-03-05T04:19:44.226Z,9.00
2023-03-05T04:22:13.800Z,9.00
2023-03-05T04:24:41.777Z,8.90
2023-03-05T04:27:09.707Z,8.90
2023-03-05T04:29:37.087Z,8.90
2023-03-05T04:32:04.852Z,8.90
2023-03-05T04:34:33.117Z,8.90
2023-03-05T04:37:00.574Z,8.90
2023-03-05T04:39:27.916Z,9.00
2023-03-05T04:41:55.267Z,8.90
2023-03-05T04:44:23.581Z,8.90
2023-03-05T04:46:51.025Z,8.80
2023-03-05T04:49:18.261Z,8.80
2023-03-05T04:51:45.655Z,8.80
2023-03-05T04:54:12.975Z,8.70
2023-03-05T04:56:40.386Z,8.70
2023-03-05T04:59:07.753Z,8.80
2023-03-05T05:01:35.687Z,8.90
2023-03-05T05:04:03.086Z,8.90
2023-03-05T05:06:30.476Z,8.90
2023-03-05T05:08:58.053Z,8.90
2023-03-05T05:11:25.349Z,8.90
2023-03-05T05:13:52.700Z,8.80
2023-03-05T05:16:20.263Z,8.80
2023-03-05T05:18:47.680Z,8.70
2023-03-05T05:21:15.713Z,8.60
2023-03-05T05:23:42.994Z,8.60
2023-03-05T05:26:15.206Z,8.60
2023-03-05T05:28:43.866Z,8.70
2023-03-05T05:31:13.845Z,8.80
2023-03-05T05:33:42.306Z,8.80
2023-03-05T05:36:13.167Z,8.80
2023-03-05T05:38:40.417Z,8.80
2023-03-05T05:41:13.089Z,8.70
2023-03-05T05:43:41.053Z,8.80
2023-03-05T05:46:11.468Z,8.80
2023-03-05T05:48:39.061Z,8.80
2023-03-05T05:51:20.923Z,8.80
2023-03-05T05:53:48.737Z,8.90
2023-03-05T05:56:16.815Z,9.00
2023-03-05T05:58:47.137Z,9.00
2023-03-05T06:01:25.081Z,9.10
2023-03-05T06:03:52.635Z,9.10
2023-03-05T06:06:21.787Z,9.20
2023-03-05T06:08:50.046Z,9.20
2023-03-05T06:11:19.431Z,9.20
2023-03-05T06:13:47.551Z,9.20
2023-03-05T06:16:18.027Z,9.30
2023-03-05T06:18:45.566Z,9.40
2023-03-05T06:21:15.418Z,9.60
2023-03-05T06:23:43.992Z,9.80
2023-03-05T06:26:14.132Z,9.90
2023-03-05T06:28:41.958Z,9.90
2023-03-05T06:31:12.700Z,10.00
2023-03-05T06:33:40.775Z,10.00
2023-03-05T06:36:10.798Z,10.10
2023-03-05T06:38:38.627Z,10.20
2023-03-05T06:41:09.522Z,10.30
2023-03-05T06:43:38.833Z,10.40
2023-03-05T06:46:14.352Z,10.50
2023-03-05T06:48:43.319Z,10.50
2023-03-05T06:51:21.602Z,10.60
2023-03-05T06:53:49.738Z,10.70
2023-03-05T06:56:18.573Z,10.70
2023-03-05T06:58:48.521Z,10.70
2023-03-05T07:01:16.396Z,10.70
2023-03-05T07:03:44.236Z,10.70
2023-03-05T07:06:14.163Z,10.70
2023-03-05T07:08:41.865Z,10.70
2023-03-05T07:11:21.048Z,10.80
2023-03-05T07:13:49.207Z,10.80
2023-03-05T07:16:28.113Z,10.90
2023-03-05T07:18:57.408Z,11.00
2023-03-05T07:21:29.916Z,11.10
2023-03-05T07:23:59.725Z,11.20
2023-03-05T07:26:28.209Z,11.30
2023-03-05T07:28:55.953Z,11.30
2023-03-05T07:31:27.600Z,11.40
2023-03-05T07:33:55.139Z,11.40
2023-03-05T07:36:22.942Z,11.40
2023-03-05T07:38:50.338Z,11.50
2023-03-05T07:41:19.966Z,11.50
2023-03-05T07:43:49.669Z,11.70
2023-03-05T07:46:19.132Z,11.90
2023-03-05T07:48:47.934Z,12.10
2023-03-05T07:51:18.407Z,12.20
2023-03-05T07:53:55.848Z,12.40
2023-03-05T07:56:35.634Z,12.70
2023-03-05T07:59:08.922Z,12.80
2023-03-05T08:01:37.059Z,13.00
2023-03-05T08:04:05.945Z,13.20
2023-03-05T08:06:33.515Z,13.30
2023-03-05T08:09:01.337Z,13.40
2023-03-05T08:11:30.234Z,13.50
2023-03-05T08:13:59.727Z,13.60
2023-03-05T08:16:28.146Z,13.70
2023-03-05T08:18:57.805Z,13.70
2023-03-05T08:21:29.468Z,13.70
2023-03-05T08:23:58.022Z,13.70
2023-03-05T08:26:28.518Z,13.70
2023-03-05T08:28:56.477Z,13.80
2023-03-05T08:31:26.844Z,13.80
2023-03-05T08:33:55.877Z,14.00
2023-03-05T08:36:26.360Z,14.10
2023-03-05T08:38:53.845Z,14.20
2023-03-05T08:41:21.499Z,14.40
2023-03-05T08:43:49.372Z,14.60
2023-03-05T08:46:17.188Z,14.80
2023-03-05T08:48:44.625Z,14.90
2023-03-05T08:51:14.460Z,14.90
2023-03-05T08:53:44.143Z,15.00
2023-03-05T08:56:12.322Z,15.10
2023-03-05T08:58:40.075Z,15.10
2023-03-05T09:01:08.078Z,15.00
2023-03-05T09:03:35.410Z,15.10
2023-03-05T09:06:06.498Z,15.20
2023-03-05T09:08:34.154Z,15.40
2023-03-05T09:11:06.841Z,15.60
2023-03-05T09:13:34.603Z,15.70
2023-03-05T09:16:10.358Z,15.80
2023-03-05T09:18:40.289Z,15.90
2023-03-05T09:21:16.746Z,15.70
2023-03-05T09:23:44.684Z,15.60
2023-03-05T09:26:13.408Z,15.50
2023-03-05T09:28:41.887Z,15.50
2023-03-05T09:31:09.867Z,15.70
2023-03-05T09:33:38.148Z,15.50
2023-03-05T09:36:14.373Z,15.60
2023-03-05T09:38:41.666Z,15.60
2023-03-05T09:41:44.859Z,15.70
2023-03-05T09:44:33.191Z,15.70
2023-03-05T09:47:18.704Z,15.80
2023-03-05T09:50:33.289Z,15.80
2023-03-05T09:53:18.300Z,15.90
2023-03-05T09:56:05.281Z,16.00
2023-03-05T09:58:41.669Z,16.10
2023-03-05T10:01:19.663Z,16.10
2023-03-05T10:04:16.699Z,16.20
2023-03-05T10:07:04.527Z,16.00
2023-03-05T10:09:59.893Z,16.10
2023-03-05T10:12:47.354Z,16.50
2023-03-05T10:15:31.658Z,16.60
2023-03-05T10:18:08.342Z,16.80
2023-03-05T10:20:58.290Z,17.00
2023-03-05T10:23:44.950Z,17.10
2023-03-05T10:26:35.840Z,17.00
2023-03-05T10:29:19.250Z,17.10
2023-03-05T10:32:16.985Z,16.90
2023-03-05T10:35:11.278Z,16.60
2023-03-05T10:38:00.261Z,16.50
2023-03-05T10:41:02.235Z,16.50
2023-03-05T10:43:32.659Z,16.40
2023-03-05T10:46:02.945Z,16.30
2023-03-05T10:48:52.505Z,16.40
2023-03-05T10:51:31.529Z,16.70
2023-03-05T10:54:04.153Z,16.80
2023-03-05T10:56:32.087Z,16.70
2023-03-05T10:58:59.388Z,16.60
2023-03-05T11:01:29.332Z,16.70
2023-03-05T11:04:07.672Z,16.80
2023-03-05T11:06:45.896Z,17.10
2023-03-05T11:09:29.426Z,17.30
2023-03-05T11:12:30.872Z,17.60
2023-03-05T11:15:10.574Z,17.90
2023-03-05T11:17:44.835Z,18.40
2023-03-05T11:20:32.114Z,18.50
2023-03-05T11:23:11.442Z,18.60
2023-03-05T11:25:55.817Z,18.70
2023-03-05T11:28:32.936Z,18.90
2023-03-05T11:31:15.694Z,18.90
2023-03-05T11:34:04.375Z,19.10
2023-03-05T11:36:40.310Z,18.90
2023-03-05T11:39:10.691Z,19.40
2023-03-05T11:41:42.401Z,19.90
2023-03-05T11:44:28.982Z,19.90
2023-03-05T11:47:01.530Z,19.70
2023-03-05T11:49:32.023Z,19.70
2023-03-05T11:52:14.865Z,19.80
2023-03-05T11:55:02.382Z,19.80
2023-03-05T11:57:40.884Z,19.70
2023-03-05T12:00:16.476Z,19.10
2023-03-05T12:02:44.092Z,18.70
2023-03-05T12:05:16.055Z,18.60
2023-03-05T12:07:48.293Z,18.00
2023-03-05T12:10:19.806Z,18.00
2023-03-05T12:13:25.976Z,17.80
2023-03-05T12:16:07.178Z,18.10
2023-03-05T12:18:47.828Z,17.80
2023-03-05T12:21:28.478Z,18.30
2023-03-05T12:23:59.306Z,19.00
2023-03-05T12:27:03.844Z,19.40
2023-03-05T12:29:41.824Z,19.60
2023-03-05T12:32:43.935Z,19.40
2023-03-05T12:35:38.034Z,19.50
2023-03-05T12:38:28.884Z,19.20
2023-03-05T12:41:25.771Z,18.90
2023-03-05T12:44:06.391Z,19.80
2023-03-05T12:46:43.039Z,20.50
2023-03-05T12:49:20.284Z,20.80
2023-03-05T12:51:53.358Z,20.90
2023-03-05T12:54:27.104Z,20.30
2023-03-05T12:56:56.932Z,20.20
2023-03-05T12:59:29.858Z,20.70
2023-03-05T13:02:00.916Z,20.90
2023-03-05T13:04:32.052Z,21.20
2023-03-05T13:07:05.264Z,21.80
2023-03-05T13:09:36.592Z,22.00
2023-03-05T13:12:11.324Z,21.40
2023-03-05T13:14:44.195Z,20.20
2023-03-05T13:17:34.256Z,19.20
2023-03-05T13:20:07.924Z,19.20
2023-03-05T13:22:35.308Z,19.80
2023-03-05T13:25:21.224Z,20.20
2023-03-05T13:27:48.581Z,20.70
2023-03-05T13:30:25.158Z,20.70
2023-03-05T13:32:55.083Z,20.00
2023-03-05T13:35:22.721Z,19.30
2023-03-05T13:37:50.545Z,19.40
2023-03-05T13:40:27.487Z,19.60
2023-03-05T13:42:56.855Z,19.60
2023-03-05T13:45:33.050Z,19.30
2023-03-05T13:48:01.702Z,18.70
2023-03-05T13:50:33.402Z,18.40
2023-03-05T13:53:20.962Z,18.50
2023-03-05T13:55:50.156Z,18.60
2023-03-05T13:58:48.260Z,18.60
2023-03-05T14:01:29.482Z,18.50
2023-03-05T14:04:22.138Z,18.50
2023-03-05T14:07:07.862Z,18.40
2023-03-05T14:09:40.896Z,18.20
2023-03-05T14:12:42.797Z,18.20
2023-03-05T14:15:24.766Z,18.30
2023-03-05T14:17:52.630Z,18.40
2023-03-05T14:20:27.629Z,18.20
2023-03-05T14:23:00.265Z,17.90
2023-03-05T14:25:39.983Z,17.70
2023-03-05T14:28:26.650Z,17.70
2023-03-05T14:30:56.182Z,17.90
2023-03-05T14:33:32.021Z,17.80
2023-03-05T14:36:01.337Z,17.40
2023-03-05T14:38:33.751Z,17.10
2023-03-05T14:41:36.436Z,16.90
2023-03-05T14:44:09.505Z,16.80
2023-03-05T14:46:36.925Z,16.70
2023-03-05T14:49:04.247Z,16.60
2023-03-05T14:51:35.509Z,16.60
2023-03-05T14:54:02.899Z,16.50
2023-03-05T14:56:30.237Z,16.30
2023-03-05T14:59:00.261Z,16.10
2023-03-05T15:01:27.717Z,16.20
2023-03-05T15:03:55.205Z,16.40
2023-03-05T15:06:31.957Z,16.70
2023-03-05T15:09:04.242Z,16.90
2023-03-05T15:11:31.708Z,17.10
2023-03-05T15:13:58.982Z,17.20
2023-03-05T15:16:26.388Z,17.20
2023-03-05T15:18:53.662Z,17.10
2023-03-05T15:21:20.936Z,17.10
2023-03-05T15:23:48.264Z,17.10
2023-03-05T15:26:16.082Z,17.10
2023-03-05T15:28:44.183Z,17.10
2023-03-05T15:31:12.041Z,17.10
2023-03-05T15:33:39.742Z,17.00
2023-03-05T15:36:07.772Z,17.00
2023-03-05T15:38:35.213Z,17.00
2023-03-05T15:41:02.480Z,17.00
2023-03-05T15:43:30.783Z,16.90
2023-03-05T15:45:58.122Z,16.90
2023-03-05T15:48:25.528Z,16.90
2023-03-05T15:50:52.801Z,16.80
2023-03-05T15:53:21.698Z,16.70
2023-03-05T15:55:49.000Z,16.70
2023-03-05T15:58:17.786Z,16.60
2023-03-05T16:00:47.623Z,16.60
2023-03-05T16:03:15.504Z,16.60
2023-03-05T16:05:43.325Z,16.50
2023-03-05T16:08:10.683Z,16.50
2023-03-05T16:10:39.794Z,16.40
2023-03-05T16:13:12.263Z,16.30
2023-03-05T16:15:41.595Z,16.20
2023-03-05T16:18:12.450Z,16.20
2023-03-05T16:20:40.009Z,16.10
2023-03-05T16:23:07.588Z,16.10
2023-03-05T16:25:34.940Z,16.00
2023-03-05T16:28:02.362Z,15.90
2023-03-05T16:30:30.194Z,15.80
2023-03-05T16:32:57.765Z,15.80
2023-03-05T16:35:25.655Z,15.70
2023-03-05T16:37:53.286Z,15.60
2023-03-05T16:40:20.648Z,15.60
2023-03-05T16:42:49.203Z,15.50
2023-03-05T16:45:19.569Z,15.50
2023-03-05T16:47:53.557Z,15.40
2023-03-05T16:50:23.704Z,15.30
2023-03-05T16:52:53.190Z,15.20
2023-03-05T16:55:20.496Z,15.10
2023-03-05T16:57:47.866Z,15.00
2023-03-05T17:00:18.941Z,15.00
2023-03-05T17:02:46.446Z,15.00
2023-03-05T17:05:13.762Z,14.90
2023-03-05T17:07:45.602Z,14.80
2023-03-05T17:10:13.555Z,14.70
2023-03-05T17:12:41.569Z,14.70
2023-03-05T17:15:09.605Z,14.70
2023-03-05T17:17:38.612Z,14.60
2023-03-05T17:20:07.005Z,14.60
2023-03-05T17:22:34.402Z,14.60
2023-03-05T17:25:02.877Z,14.50
2023-03-05T17:27:30.107Z,14.50
2023-03-05T17:29:57.610Z,14.50
2023-03-05T17:32:25.283Z,14.40
2023-03-05T17:34:56.995Z,14.40
2023-03-05T17:37:25.083Z,14.50
2023-03-05T17:39:53.068Z,14.40
2023-03-05T17:42:27.018Z,14.30
2023-03-05T17:44:54.369Z,14.20
2023-03-05T17:47:23.571Z,14.00
2023-03-05T17:49:51.535Z,13.90
2023-03-05T17:52:21.139Z,13.80
2023-03-05T17:54:50.560Z,13.80
2023-03-05T17:57:20.951Z,13.80
2023-03-05T17:59:48.850Z,13.70
2023-03-05T18:02:16.142Z,13.70
2023-03-05T18:04:46.944Z,13.60
2023-03-05T18:07:19.254Z,13.60
2023-03-05T18:09:46.702Z,13.50
2023-03-05T18:12:16.213Z,13.50
2023-03-05T18:14:43.496Z,13.50
2023-03-05T18:17:17.057Z,13.50
2023-03-05T18:19:47.871Z,13.40
2023-03-05T18:22:15.865Z,13.30
2023-03-05T18:24:46.036Z,13.40
2023-03-05T18:27:13.498Z,13.50
2023-03-05T18:29:40.818Z,13.50
2023-03-05T18:32:09.447Z,13.40
2023-03-05T18:34:40.125Z,13.30
2023-03-05T18:37:10.419Z,13.30
2023-03-05T18:39:39.518Z,13.40
2023-03-05T18:42:06.949Z,13.60
2023-03-05T18:44:34.287Z,13.50
2023-03-05T18:47:02.178Z,13.50
2023-03-05T18:49:29.817Z,13.50
2023-03-05T18:51:59.563Z,13.50
2023-03-05T18:54:27.017Z,13.40
2023-03-05T18:56:54.369Z,13.40
2023-03-05T18:59:22.490Z,13.40
2023-03-05T19:01:49.840Z,13.40
2023-03-05T19:04:17.400Z,13.40
2023-03-05T19:06:47.550Z,13.40
2023-03-05T19:09:21.950Z,13.40
2023-03-05T19:11:49.316Z,13.40
2023-03-05T19:14:16.638Z,13.40
2023-03-05T19:16:44.337Z,13.30
2023-03-05T19:19:25.592Z,13.30
2023-03-05T19:22:00.032Z,13.30
2023-03-05T19:24:30.012Z,13.40
2023-03-05T19:27:03.556Z,13.40
2023-03-05T19:29:33.295Z,13.40
2023-03-05T19:32:00.680Z,13.40
2023-03-05T19:34:28.159Z,13.40
2023-03-05T19:36:55.896Z,13.40
2023-03-05T19:39:23.185Z,13.40
2023-03-05T19:41:50.642Z,13.40
2023-03-05T19:44:19.484Z,13.30
2023-03-05T19:46:48.683Z,13.30
2023-03-05T19:49:17.206Z,13.20
2023-03-05T19:51:46.174Z,13.20
2023-03-05T19:54:15.170Z,13.10
2023-03-05T19:56:43.900Z,13.00
2023-03-05T19:59:14.432Z,12.90
2023-03-05T20:01:42.042Z,13.00
2023-03-05T20:04:12.828Z,13.00
2023-03-05T20:06:40.668Z,13.00
2023-03-05T20:09:08.543Z,12.90
2023-03-05T20:11:36.473Z,13.00
2023-03-05T20:14:04.125Z,12.90
2023-03-05T20:16:35.341Z,12.90
2023-03-05T20:19:04.497Z,12.90
2023-03-05T20:21:36.342Z,12.80
2023-03-05T20:24:09.503Z,12.70
2023-03-05T20:26:38.774Z,12.60
2023-03-05T20:29:06.967Z,12.60
2023-03-05T20:31:37.170Z,12.50
2023-03-05T20:34:11.355Z,12.40
2023-03-05T20:36:39.225Z,12.40
2023-03-05T20:39:07.521Z,12.50
2023-03-05T20:41:37.896Z,12.50
2023-03-05T20:44:05.439Z,12.40
2023-03-05T20:47:02.979Z,12.30
2023-03-05T20:49:30.393Z,12.20
2023-03-05T20:52:03.054Z,12.20
2023-03-05T20:54:30.598Z,12.10
2023-03-05T20:56:57.913Z,12.20
2023-03-05T20:59:28.663Z,12.10
2023-03-05T21:01:56.819Z,12.00
2023-03-05T21:04:24.242Z,11.80
2023-03-05T21:06:54.585Z,11.70
2023-03-05T21:09:22.497Z,11.50
2023-03-05T21:11:50.351Z,11.50
2023-03-05T21:14:17.814Z,11.40
2023-03-05T21:16:45.377Z,11.40
2023-03-05T21:19:24.361Z,11.30
2023-03-05T21:21:55.230Z,11.30
2023-03-05T21:24:25.583Z,11.20
2023-03-05T21:26:52.971Z,11.00
2023-03-05T21:29:25.910Z,11.00
2023-03-05T21:31:53.405Z,10.90
2023-03-05T21:34:20.854Z,10.90
2023-03-05T21:36:48.333Z,10.90
2023-03-05T21:39:18.833Z,11.00
2023-03-05T21:41:47.360Z,11.00
2023-03-05T21:44:17.836Z,11.00
2023-03-05T21:46:45.153Z,11.00
2023-03-05T21:49:15.047Z,11.00
2023-03-05T21:52:00.516Z,11.00
2023-03-05T21:54:29.031Z,11.00
2023-03-05T21:56:56.436Z,11.00
2023-03-05T21:59:26.797Z,10.90
2023-03-05T22:01:55.000Z,10.80
2023-03-05T22:04:25.523Z,10.80
2023-03-05T22:06:55.908Z,10.80
2023-03-05T22:09:23.356Z,10.80
2023-03-05T22:11:50.582Z,10.80
2023-03-05T22:14:18.158Z,10.70
2023-03-05T22:16:45.708Z,10.70
2023-03-05T22:19:13.068Z,10.70
2023-03-05T22:21:40.501Z,10.70
2023-03-05T22:24:08.098Z,10.70
2023-03-05T22:26:38.217Z,10.70
2023-03-05T22:29:06.230Z,10.60
2023-03-05T22:31:33.668Z,10.60
2023-03-05T22:34:01.305Z,10.50
2023-03-05T22:36:28.925Z,10.50
2023-03-05T22:38:56.236Z,10.40
2023-03-05T22:41:23.669Z,10.40
2023-03-05T22:43:51.738Z,10.30
2023-03-05T22:46:25.403Z,10.30
2023-03-05T22:48:53.299Z,10.20
2023-03-05T22:51:21.022Z,10.10
2023-03-05T22:53:48.520Z,10.00
2023-03-05T22:56:18.164Z,10.00
2023-03-05T22:58:45.720Z,10.10
2023-03-05T23:01:22.008Z,10.10
2023-03-05T23:03:55.061Z,10.20
2023-03-05T23:06:22.454Z,10.20
2023-03-05T23:08:49.663Z,10.20
2023-03-05T23:11:17.209Z,10.20
2023-03-05T23:13:44.454Z,10.20
2023-03-05T23:16:11.718Z,10.20
2023-03-05T23:18:39.203Z,10.10
2023-03-05T23:21:06.574Z,10.10
2023-03-05T23:23:33.867Z,10.10
2023-03-05T23:26:01.429Z,10.10
2023-03-05T23:28:28.714Z,10.00
2023-03-05T23:30:58.045Z,9.90
2023-03-05T23:33:25.977Z,9.90
2023-03-05T23:35:56.553Z,9.90
2023-03-05T23:38:25.292Z,9.80
2023-03-05T23:40:55.001Z,9.80
2023-03-05T23:43:25.073Z,9.80
2023-03-05T23:45:55.251Z,9.90
2023-03-05T23:48:26.901Z,9.90
2023-03-05T23:50:54.434Z,10.00
2023-03-05T23:53:24.924Z,10.00
2023-03-05T23:55:52.777Z,10.10
2023-03-05T23:58:23.224Z,10.10
